createdAt,value
2023-04-28T00:00:53.739Z,6.70
2023-04-28T00:06:12.145Z,6.75
2023-04-28T00:08:41.450Z,6.30
2023-04-28T00:11:11.628Z,7.10
2023-04-28T00:13:38.771Z,7.53
2023-04-28T00:16:06.047Z,7.20
2023-04-28T00:18:33.736Z,8.38
2023-04-28T00:21:04.992Z,7.72
2023-04-28T00:23:40.980Z,5.32
2023-04-28T00:26:08.227Z,6.63
2023-04-28T00:28:35.218Z,6.60
2023-04-28T00:31:03.605Z,8.85
2023-04-28T00:33:33.309Z,4.28
2023-04-28T00:36:01.515Z,3.60
2023-04-28T00:38:29.068Z,4.28
2023-04-28T00:40:56.354Z,3.85
2023-04-28T00:43:25.228Z,3.33
2023-04-28T00:45:52.843Z,4.80
2023-04-28T00:48:20.067Z,3.22
2023-04-28T00:50:47.718Z,1.98
2023-04-28T00:53:14.834Z,4.43
2023-04-28T00:55:44.638Z,3.88
2023-04-28T00:58:12.590Z,3.65
2023-04-28T01:00:45.093Z,3.13
2023-04-28T01:03:12.223Z,2.85
2023-04-28T01:05:39.799Z,2.55
2023-04-28T01:08:07.389Z,1.63
2023-04-28T01:10:36.812Z,3.30
2023-04-28T01:13:04.215Z,2.10
2023-04-28T01:15:33.032Z,3.42
2023-04-28T01:18:00.240Z,2.80
2023-04-28T01:20:27.282Z,3.80
2023-04-28T01:22:54.717Z,5.32
2023-04-28T01:25:26.914Z,3.97
2023-04-28T01:27:53.982Z,4.63
2023-04-28T01:30:21.513Z,3.63
2023-04-28T01:32:48.568Z,4.25
2023-04-28T01:35:19.881Z,4.75
2023-04-28T01:37:46.850Z,3.97
2023-04-28T01:40:14.187Z,5.88
2023-04-28T01:42:41.597Z,5.97
2023-04-28T01:45:11.889Z,7.18
2023-04-28T01:47:41.137Z,7.60
2023-04-28T01:50:11.816Z,8.43
2023-04-28T01:52:40.874Z,8.20
2023-04-28T01:55:11.387Z,8.73
2023-04-28T01:57:43.683Z,9.48
2023-04-28T02:00:10.977Z,9.82
2023-04-28T02:02:38.295Z,10.52
2023-04-28T02:05:05.821Z,9.45
2023-04-28T02:07:34.647Z,11.60
2023-04-28T02:10:01.878Z,10.85
2023-04-28T02:12:29.330Z,12.20
2023-04-28T02:14:56.736Z,12.85
2023-04-28T02:17:24.147Z,14.63
2023-04-28T02:19:57.675Z,12.23
2023-04-28T02:22:29.231Z,12.20
2023-04-28T02:24:59.740Z,11.65
2023-04-28T02:27:27.289Z,16.17
2023-04-28T02:29:54.964Z,14.48
2023-04-28T02:32:22.279Z,16.17
2023-04-28T02:34:54.592Z,15.52
2023-04-28T02:37:22.163Z,15.10
2023-04-28T02:39:49.417Z,14.90
2023-04-28T02:42:16.646Z,14.07
2023-04-28T02:44:43.803Z,14.98
2023-04-28T02:47:12.799Z,12.95
2023-04-28T02:49:39.999Z,15.02
2023-04-28T02:52:10.245Z,15.00
2023-04-28T02:54:37.720Z,12.52
2023-04-28T02:57:07.855Z,14.43
2023-04-28T02:59:35.838Z,10.73
2023-04-28T03:02:05.797Z,12.93
2023-04-28T03:04:46.558Z,12.77
2023-04-28T03:07:17.922Z,10.18
2023-04-28T03:09:57.922Z,12.82
2023-04-28T03:12:24.978Z,10.70
2023-04-28T03:17:44.900Z,10.32
2023-04-28T03:20:13.424Z,9.32
2023-04-28T03:22:44.197Z,12.30
2023-04-28T03:25:14.598Z,10.95
2023-04-28T03:27:41.676Z,10.15
2023-04-28T03:30:10.691Z,11.10
2023-04-28T03:32:38.868Z,10.18
2023-04-28T03:35:06.204Z,12.45
2023-04-28T03:37:33.269Z,12.25
2023-04-28T03:40:00.370Z,11.27
2023-04-28T03:42:27.861Z,11.70
2023-04-28T03:44:56.562Z,16.83
2023-04-28T03:47:43.648Z,12.68
2023-04-28T03:50:12.444Z,12.00
2023-04-28T03:52:39.788Z,12.77
2023-04-28T03:55:08.398Z,13.65
2023-04-28T03:57:36.367Z,9.88
2023-04-28T04:00:06.666Z,9.48
2023-04-28T04:02:34.153Z,9.52
2023-04-28T04:05:03.193Z,9.35
2023-04-28T04:07:30.864Z,10.50
2023-04-28T04:10:04.653Z,8.05
2023-04-28T04:12:32.221Z,10.07
2023-04-28T04:15:01.551Z,5.10
2023-04-28T04:17:28.931Z,3.83
2023-04-28T04:19:56.312Z,4.28
2023-04-28T04:22:23.518Z,4.88
2023-04-28T04:24:51.352Z,2.53
2023-04-28T04:27:19.446Z,2.13
2023-04-28T04:29:49.546Z,2.45
2023-04-28T04:32:16.774Z,2.17
2023-04-28T04:34:46.958Z,1.13
2023-04-28T04:37:16.820Z,0.85
2023-04-28T04:39:43.877Z,0.85
2023-04-28T04:42:24.180Z,0.82
2023-04-28T04:44:52.437Z,0.85
2023-04-28T04:47:19.812Z,0.70
2023-04-28T04:49:51.367Z,1.95
2023-04-28T04:52:19.214Z,0.50
2023-04-28T04:54:46.878Z,0.50
2023-04-28T04:57:14.394Z,1.27
2023-04-28T04:59:41.563Z,0.40
2023-04-28T05:02:08.924Z,0.47
2023-04-28T05:04:36.257Z,0.20
2023-04-28T05:07:03.461Z,0.30
2023-04-28T05:09:33.558Z,0.28
2023-04-28T05:12:01.010Z,0.77
2023-04-28T05:14:30.605Z,0.60
2023-04-28T05:16:58.308Z,0.40
2023-04-28T05:19:26.017Z,0.40
2023-04-28T05:21:57.836Z,0.68
2023-04-28T05:24:24.969Z,0.60
2023-04-28T05:26:52.401Z,0.50
2023-04-28T05:29:25.814Z,0.50
2023-04-28T05:31:58.197Z,0.63
2023-04-28T05:34:27.823Z,0.98
2023-04-28T05:36:56.671Z,0.70
2023-04-28T05:39:23.807Z,0.70
2023-04-28T05:41:58.898Z,0.60
2023-04-28T05:44:25.959Z,0.60
2023-04-28T05:46:53.177Z,0.85
2023-04-28T05:49:20.580Z,1.35
2023-04-28T05:51:51.182Z,0.82
2023-04-28T05:54:20.589Z,0.60
2023-04-28T05:56:50.800Z,0.95
2023-04-28T05:59:23.789Z,1.05
2023-04-28T06:01:53.261Z,1.92
2023-04-28T06:04:21.085Z,0.57
2023-04-28T06:06:48.731Z,1.05
2023-04-28T06:09:15.921Z,0.68
2023-04-28T06:11:45.899Z,0.50
2023-04-28T06:14:12.837Z,0.40
2023-04-28T06:16:39.928Z,0.93
2023-04-28T06:19:07.979Z,0.70
2023-04-28T06:21:34.967Z,0.70
2023-04-28T06:24:02.455Z,2.63
2023-04-28T06:26:29.984Z,3.35
2023-04-28T06:28:58.401Z,0.85
2023-04-28T06:31:36.280Z,0.63
2023-04-28T06:37:03.946Z,1.65
2023-04-28T06:39:30.945Z,0.40
2023-04-28T06:41:58.034Z,0.47
2023-04-28T06:44:24.942Z,0.47
2023-04-28T06:46:52.096Z,0.40
2023-04-28T06:49:19.224Z,0.52
2023-04-28T06:51:46.160Z,0.32
2023-04-28T06:54:13.802Z,0.32
2023-04-28T06:56:40.787Z,0.52
2023-04-28T06:59:08.369Z,0.63
2023-04-28T07:01:35.297Z,0.35
2023-04-28T07:04:02.405Z,0.82
2023-04-28T07:06:29.903Z,0.40
2023-04-28T07:08:57.302Z,1.20
2023-04-28T07:11:26.841Z,0.80
2023-04-28T07:13:54.086Z,0.50
2023-04-28T07:16:22.209Z,0.47
2023-04-28T07:18:49.285Z,0.40
2023-04-28T07:21:16.385Z,0.70
2023-04-28T07:23:43.890Z,0.73
2023-04-28T07:26:12.595Z,0.50
2023-04-28T07:28:40.782Z,0.40
2023-04-28T07:31:08.309Z,1.10
2023-04-28T07:33:38.081Z,0.50
2023-04-28T07:36:05.645Z,0.65
2023-04-28T07:38:34.630Z,1.60
2023-04-28T07:46:33.154Z,1.33
2023-04-28T07:51:41.652Z,0.60
2023-04-28T07:54:09.256Z,2.97
2023-04-28T07:56:36.812Z,0.30
2023-04-28T07:59:03.705Z,0.50
2023-04-28T08:01:30.792Z,0.65
2023-04-28T08:03:58.677Z,0.47
2023-04-28T08:06:26.686Z,0.45
2023-04-28T08:08:58.541Z,0.82
2023-04-28T08:11:25.623Z,0.70
2023-04-28T08:13:53.347Z,7.30
2023-04-28T08:16:27.597Z,0.38
2023-04-28T08:18:57.481Z,1.15
2023-04-28T08:21:24.654Z,0.30
2023-04-28T08:23:54.295Z,1.40
2023-04-28T08:26:21.814Z,0.30
2023-04-28T08:28:48.983Z,0.65
2023-04-28T08:31:23.002Z,0.85
2023-04-28T08:36:18.963Z,1.83
2023-04-28T08:38:46.601Z,0.52
2023-04-28T08:41:15.811Z,0.10
2023-04-28T08:43:57.152Z,0.20
2023-04-28T08:46:26.365Z,0.95
2023-04-28T08:48:56.624Z,0.10
2023-04-28T08:51:31.243Z,2.03
2023-04-28T08:56:33.423Z,1.77
2023-04-28T08:59:04.979Z,0.03
2023-04-28T09:01:32.864Z,1.38
2023-04-28T09:04:44.182Z,0.10
2023-04-28T09:07:15.696Z,1.73
2023-04-28T09:09:43.043Z,0.13
2023-04-28T09:12:10.065Z,0.32
2023-04-28T09:14:38.342Z,0.10
2023-04-28T09:17:16.053Z,0.35
2023-04-28T09:19:49.424Z,0.17
2023-04-28T09:22:26.194Z,0.20
2023-04-28T09:25:00.135Z,0.45
2023-04-28T09:27:29.592Z,0.20
2023-04-28T09:29:56.768Z,0.10
2023-04-28T09:32:24.833Z,0.55
2023-04-28T09:34:55.147Z,0.65
2023-04-28T09:37:28.712Z,0.00
2023-04-28T09:39:58.871Z,0.10
2023-04-28T09:42:40.178Z,3.60
2023-04-28T09:45:24.001Z,0.00
2023-04-28T09:47:51.414Z,0.03
2023-04-28T09:50:18.592Z,0.25
2023-04-28T09:52:49.162Z,0.57
2023-04-28T09:55:16.593Z,0.10
2023-04-28T09:57:43.437Z,0.00
2023-04-28T10:00:10.566Z,0.57
2023-04-28T10:05:09.937Z,0.05
2023-04-28T10:07:42.717Z,0.10
2023-04-28T10:10:10.343Z,1.75
2023-04-28T10:12:38.969Z,0.10
2023-04-28T10:15:07.938Z,0.20
2023-04-28T10:17:35.319Z,0.25
2023-04-28T10:20:03.826Z,0.20
2023-04-28T10:23:09.398Z,0.10
2023-04-28T10:25:39.736Z,1.23
2023-04-28T10:28:09.146Z,1.27
2023-04-28T10:30:36.274Z,0.55
2023-04-28T10:33:13.407Z,1.75
2023-04-28T10:35:43.106Z,0.70
2023-04-28T10:38:16.726Z,0.10
2023-04-28T10:40:47.135Z,0.20
2023-04-28T10:43:15.511Z,0.20
2023-04-28T10:45:57.474Z,0.00
2023-04-28T10:48:36.510Z,0.28
2023-04-28T10:51:08.163Z,0.52
2023-04-28T10:53:48.830Z,0.10
2023-04-28T10:56:22.981Z,0.10
2023-04-28T10:59:00.291Z,0.00
2023-04-28T11:01:30.919Z,0.80
2023-04-28T11:04:10.880Z,0.13
2023-04-28T11:06:48.254Z,0.50
2023-04-28T11:09:15.357Z,0.50
2023-04-28T11:11:56.363Z,0.32
2023-04-28T11:14:26.506Z,1.13
2023-04-28T11:17:00.456Z,1.05
2023-04-28T11:22:12.092Z,1.08
2023-04-28T11:24:39.087Z,0.15
2023-04-28T11:27:09.043Z,0.20
2023-04-28T11:29:37.301Z,0.50
2023-04-28T11:32:05.325Z,0.57
2023-04-28T11:34:32.911Z,0.60
2023-04-28T11:37:00.158Z,0.20
2023-04-28T11:39:37.400Z,1.10
2023-04-28T11:42:10.399Z,0.20
2023-04-28T11:44:37.519Z,1.08
2023-04-28T11:47:07.387Z,0.38
2023-04-28T11:49:45.220Z,0.40
2023-04-28T11:52:12.375Z,0.32
2023-04-28T11:54:40.051Z,0.63
2023-04-28T11:57:08.042Z,0.30
2023-04-28T11:59:36.072Z,0.30
2023-04-28T12:02:07.098Z,0.77
2023-04-28T12:04:42.054Z,0.40
2023-04-28T12:07:15.751Z,0.55
2023-04-28T12:09:44.479Z,0.45
2023-04-28T12:12:14.779Z,0.32
2023-04-28T12:15:18.839Z,0.40
2023-04-28T12:17:51.352Z,0.30
2023-04-28T12:20:35.424Z,0.40
2023-04-28T12:23:02.849Z,2.25
2023-04-28T12:25:29.893Z,0.90
2023-04-28T12:28:02.339Z,1.92
2023-04-28T12:30:33.568Z,0.88
2023-04-28T12:33:00.707Z,2.03
2023-04-28T12:35:29.955Z,0.30
2023-04-28T12:38:00.184Z,0.30
2023-04-28T12:40:27.385Z,4.43
2023-04-28T12:42:55.053Z,3.00
2023-04-28T12:45:25.358Z,1.02
2023-04-28T12:47:57.064Z,2.05
2023-04-28T12:50:25.707Z,1.30
2023-04-28T12:52:53.032Z,0.50
2023-04-28T12:55:20.103Z,0.40
2023-04-28T12:57:47.369Z,0.43
2023-04-28T13:00:16.718Z,1.73
2023-04-28T13:02:43.895Z,1.00
2023-04-28T13:05:11.215Z,0.40
2023-04-28T13:07:38.552Z,1.67
2023-04-28T13:10:06.675Z,0.60
2023-04-28T13:12:34.329Z,1.05
2023-04-28T13:15:04.768Z,0.60
2023-04-28T13:17:31.893Z,1.17
2023-04-28T13:20:01.158Z,1.20
2023-04-28T13:22:28.090Z,2.47
2023-04-28T13:24:56.190Z,0.60
2023-04-28T13:27:23.268Z,0.82
2023-04-28T13:29:50.279Z,0.68
2023-04-28T13:32:17.144Z,0.40
2023-04-28T13:34:44.485Z,0.60
2023-04-28T13:37:11.568Z,0.77
2023-04-28T13:39:38.682Z,1.20
2023-04-28T13:42:07.079Z,0.65
2023-04-28T13:44:34.197Z,0.50
2023-04-28T13:47:01.316Z,0.95
2023-04-28T13:49:29.122Z,1.80
2023-04-28T13:51:56.984Z,0.50
2023-04-28T13:54:24.022Z,0.57
2023-04-28T13:56:51.027Z,0.88
2023-04-28T13:59:18.125Z,0.45
2023-04-28T14:01:45.579Z,0.40
2023-04-28T14:04:12.946Z,1.48
2023-04-28T14:06:39.981Z,0.30
2023-04-28T14:09:07.635Z,0.45
2023-04-28T14:11:36.584Z,0.63
2023-04-28T14:14:04.570Z,1.60
2023-04-28T14:16:31.833Z,0.30
2023-04-28T14:18:59.577Z,1.83
2023-04-28T14:21:26.744Z,0.20
2023-04-28T14:23:57.387Z,0.57
2023-04-28T14:26:30.281Z,0.55
2023-04-28T14:28:57.095Z,0.20
2023-04-28T14:31:24.022Z,0.40
2023-04-28T14:33:51.063Z,0.20
2023-04-28T14:36:18.520Z,0.35
2023-04-28T14:38:45.399Z,1.27
2023-04-28T14:41:14.916Z,1.17
2023-04-28T14:43:41.880Z,1.08
2023-04-28T14:46:08.951Z,0.63
2023-04-28T14:48:36.574Z,0.20
2023-04-28T14:51:03.675Z,0.20
2023-04-28T14:53:33.297Z,2.33
2023-04-28T14:56:11.238Z,1.58
2023-04-28T14:58:45.559Z,0.43
2023-04-28T15:01:12.674Z,1.00
2023-04-28T15:03:40.248Z,1.85
2023-04-28T15:06:07.424Z,0.50
2023-04-28T15:08:37.518Z,0.50
2023-04-28T15:11:04.559Z,0.30
2023-04-28T15:13:32.316Z,0.40
2023-04-28T15:15:59.244Z,1.33
2023-04-28T15:18:26.419Z,0.50
2023-04-28T15:20:55.017Z,1.23
2023-04-28T15:23:22.799Z,0.65
2023-04-28T15:28:36.348Z,0.40
2023-04-28T15:31:05.117Z,0.40
2023-04-28T15:33:32.256Z,0.80
2023-04-28T15:35:59.274Z,0.30
2023-04-28T15:38:29.912Z,0.25
2023-04-28T15:40:57.213Z,0.55
2023-04-28T15:43:25.242Z,0.55
2023-04-28T15:45:52.620Z,2.40
2023-04-28T15:48:19.980Z,1.42
2023-04-28T15:50:46.795Z,0.50
2023-04-28T15:53:14.075Z,0.80
2023-04-28T15:55:46.210Z,0.70
2023-04-28T15:58:13.317Z,1.55
2023-04-28T16:00:42.310Z,1.33
2023-04-28T16:03:09.205Z,1.80
2023-04-28T16:05:37.493Z,2.47
2023-04-28T16:08:06.683Z,0.50
2023-04-28T16:10:33.514Z,0.70
2023-04-28T16:13:00.699Z,1.15
2023-04-28T16:15:27.787Z,0.65
2023-04-28T16:17:57.807Z,0.73
2023-04-28T16:20:24.745Z,1.30
2023-04-28T16:22:51.659Z,0.50
2023-04-28T16:25:19.280Z,0.50
2023-04-28T16:27:46.376Z,0.60
2023-04-28T16:30:13.291Z,0.50
2023-04-28T16:32:40.983Z,0.55
2023-04-28T16:35:12.386Z,1.05
2023-04-28T16:37:41.083Z,0.70
2023-04-28T16:40:09.028Z,0.93
2023-04-28T16:42:36.262Z,0.50
2023-04-28T16:45:03.390Z,0.70
2023-04-28T16:47:34.273Z,0.50
2023-04-28T16:50:01.193Z,0.73
2023-04-28T16:52:28.280Z,1.60
2023-04-28T16:54:55.212Z,1.00
2023-04-28T16:57:22.244Z,0.77
2023-04-28T16:59:51.167Z,0.60
2023-04-28T17:02:18.516Z,1.48
2023-04-28T17:04:46.010Z,1.77
2023-04-28T17:07:12.946Z,1.42
2023-04-28T17:09:39.770Z,0.90
2023-04-28T17:12:07.154Z,0.65
2023-04-28T17:14:35.689Z,1.63
2023-04-28T17:17:03.385Z,1.05
2023-04-28T17:19:30.753Z,2.67
2023-04-28T17:21:57.767Z,0.95
2023-04-28T17:24:24.877Z,2.00
2023-04-28T17:26:52.160Z,1.70
2023-04-28T17:29:19.603Z,1.25
2023-04-28T17:31:46.606Z,0.60
2023-04-28T17:34:14.162Z,3.10
2023-04-28T17:36:42.358Z,1.23
2023-04-28T17:39:09.925Z,1.20
2023-04-28T17:41:37.333Z,1.80
2023-04-28T17:44:04.402Z,1.80
2023-04-28T17:46:32.604Z,1.60
2023-04-28T17:49:00.555Z,3.05
2023-04-28T17:51:28.012Z,1.35
2023-04-28T17:53:56.940Z,2.33
2023-04-28T17:56:24.197Z,2.58
2023-04-28T17:58:51.924Z,1.83
2023-04-28T18:01:18.944Z,5.05
2023-04-28T18:03:46.510Z,3.10
2023-04-28T18:06:14.098Z,4.00
2023-04-28T18:08:41.238Z,2.10
2023-04-28T18:11:10.180Z,3.20
2023-04-28T18:13:37.305Z,3.65
2023-04-28T18:16:08.368Z,3.38
2023-04-28T18:18:36.880Z,3.20
2023-04-28T18:21:03.904Z,3.25
2023-04-28T18:23:31.150Z,5.45
2023-04-28T18:25:58.153Z,2.53
2023-04-28T18:28:25.176Z,2.97
2023-04-28T18:30:51.940Z,5.07
2023-04-28T18:33:20.673Z,4.90
2023-04-28T18:35:50.891Z,4.63
2023-04-28T18:38:18.466Z,6.40
2023-04-28T18:40:45.553Z,7.00
2023-04-28T18:43:15.138Z,6.18
2023-04-28T18:45:43.600Z,5.72
2023-04-28T18:48:12.121Z,6.47
2023-04-28T18:50:39.337Z,9.02
2023-04-28T18:53:06.773Z,9.10
2023-04-28T18:55:33.656Z,7.72
2023-04-28T18:58:02.386Z,99.43
2023-04-28T19:00:29.409Z,11.23
2023-04-28T19:02:56.703Z,13.15
2023-04-28T19:05:24.092Z,11.73
2023-04-28T19:07:51.083Z,12.90
2023-04-28T19:10:20.751Z,11.60
2023-04-28T19:12:47.764Z,13.05
2023-04-28T19:15:15.166Z,12.82
2023-04-28T19:17:42.129Z,13.07
2023-04-28T19:20:09.542Z,15.13
2023-04-28T19:22:44.064Z,10.95
2023-04-28T19:25:11.714Z,14.35
2023-04-28T19:27:40.500Z,11.52
2023-04-28T19:30:11.135Z,14.65
2023-04-28T19:32:38.234Z,13.38
2023-04-28T19:35:05.716Z,12.15
2023-04-28T19:37:34.094Z,13.48
2023-04-28T19:40:03.302Z,12.45
2023-04-28T19:42:32.419Z,9.88
2023-04-28T19:44:59.868Z,11.32
2023-04-28T19:47:42.241Z,11.10
2023-04-28T19:50:10.838Z,12.05
2023-04-28T19:52:38.033Z,10.65
2023-04-28T19:55:05.596Z,13.57
2023-04-28T19:57:32.937Z,11.95
2023-04-28T19:59:59.910Z,14.20
2023-04-28T20:02:26.903Z,12.63
2023-04-28T20:04:53.929Z,15.57
2023-04-28T20:07:20.824Z,16.90
2023-04-28T20:09:48.478Z,16.38
2023-04-28T20:12:15.465Z,15.43
2023-04-28T20:14:42.621Z,16.38
2023-04-28T20:17:09.693Z,17.38
2023-04-28T20:19:36.925Z,14.48
2023-04-28T20:22:08.202Z,25.70
2023-04-28T20:24:36.305Z,15.02
2023-04-28T20:27:03.665Z,13.23
2023-04-28T20:29:37.358Z,17.17
2023-04-28T20:32:04.776Z,16.13
2023-04-28T20:34:32.628Z,15.48
2023-04-28T20:36:59.776Z,16.60
2023-04-28T20:39:26.715Z,14.27
2023-04-28T20:41:54.192Z,17.02
2023-04-28T20:44:24.274Z,13.60
2023-04-28T20:46:52.189Z,18.27
2023-04-28T20:49:19.319Z,15.13
2023-04-28T20:51:46.708Z,17.02
2023-04-28T20:54:14.045Z,17.92
2023-04-28T20:56:42.261Z,15.18
2023-04-28T20:59:09.479Z,13.55
2023-04-28T21:01:36.996Z,16.70
2023-04-28T21:04:04.192Z,16.08
2023-04-28T21:06:31.204Z,14.63
2023-04-28T21:08:58.163Z,14.52
2023-04-28T21:11:25.285Z,15.70
2023-04-28T21:13:55.385Z,14.15
2023-04-28T21:16:22.835Z,15.02
2023-04-28T21:18:50.197Z,16.52
2023-04-28T21:21:17.483Z,14.40
2023-04-28T21:23:44.550Z,14.10
2023-04-28T21:26:11.705Z,15.07
2023-04-28T21:28:40.167Z,13.88
2023-04-28T21:31:07.589Z,14.50
2023-04-28T21:33:37.089Z,13.82
2023-04-28T21:36:06.204Z,15.82
2023-04-28T21:38:34.368Z,13.02
2023-04-28T21:41:01.897Z,16.85
2023-04-28T21:43:34.609Z,12.10
2023-04-28T21:46:02.813Z,11.68
2023-04-28T21:48:35.736Z,13.88
2023-04-28T21:51:02.666Z,16.73
2023-04-28T21:53:29.593Z,15.57
2023-04-28T21:55:56.538Z,16.00
2023-04-28T21:58:23.617Z,15.32
2023-04-28T22:00:51.329Z,15.10
2023-04-28T22:03:18.908Z,17.73
2023-04-28T22:05:46.062Z,16.73
2023-04-28T22:08:13.689Z,13.52
2023-04-28T22:10:40.839Z,17.73
2023-04-28T22:13:11.356Z,16.00
2023-04-28T22:15:38.444Z,14.35
2023-04-28T22:18:06.421Z,15.18
2023-04-28T22:20:33.519Z,18.48
2023-04-28T22:23:00.400Z,14.77
2023-04-28T22:25:27.580Z,16.75
2023-04-28T22:27:54.772Z,22.33
2023-04-28T22:30:25.828Z,18.13
2023-04-28T22:32:53.514Z,17.92
2023-04-28T22:35:20.822Z,17.58
2023-04-28T22:37:47.896Z,15.70
2023-04-28T22:40:14.915Z,19.10
2023-04-28T22:42:42.078Z,17.50
2023-04-28T22:45:10.461Z,21.13
2023-04-28T22:47:38.702Z,19.38
2023-04-28T22:50:06.741Z,20.13
2023-04-28T22:52:38.025Z,20.42
2023-04-28T22:55:05.763Z,18.48
2023-04-28T22:57:32.673Z,20.33
2023-04-28T23:00:00.007Z,19.15
2023-04-28T23:02:27.295Z,18.70
2023-04-28T23:04:54.566Z,21.00
2023-04-28T23:07:23.718Z,22.55
2023-04-28T23:09:50.712Z,20.92
2023-04-28T23:12:18.201Z,18.65
2023-04-28T23:14:45.048Z,20.65
2023-04-28T23:17:12.109Z,21.45
2023-04-28T23:19:39.664Z,21.60
2023-04-28T23:22:07.675Z,21.85
2023-04-28T23:24:37.273Z,22.27
2023-04-28T23:27:04.845Z,21.42
2023-04-28T23:29:32.154Z,24.52
2023-04-28T23:31:59.592Z,21.67
2023-04-28T23:34:26.836Z,22.27
2023-04-28T23:36:53.908Z,23.67
2023-04-28T23:39:20.859Z,24.73
2023-04-28T23:41:50.113Z,23.90
2023-04-28T23:44:17.444Z,21.33
2023-04-28T23:46:44.434Z,25.00
2023-04-28T23:49:11.524Z,27.58
2023-04-28T23:51:38.577Z,25.17
2023-04-28T23:54:05.431Z,20.40
2023-04-28T23:56:32.698Z,24.48
2023-04-28T23:58:59.711Z,23.05
